Time;durP1;ratioP1;P1;durP2;ratioP2;P2;SDS_P1;SDS_P2;PMS_P1;PMS_P2;Temp;Humidity;BMP_temperature;BMP_pressure;BME280_temperature;BME280_humidity;BME280_pressure;Samples;Min_cycle;Max_cycle;Signal;HPM_P1;HPM_P2
2021/12/31 00:03:17;;;;;;;0.47;0.40;;;;;;;13.20;77.27;100118.41;10318882;28;20393;-73
2021/12/31 00:08:19;;;;;;;0.65;0.50;;;;;;;13.18;77.80;100125.50;10336335;28;20050;-73
2021/12/31 00:13:20;;;;;;;0.57;0.30;;;;;;;13.10;78.25;100115.25;10335120;28;20124;-72
2021/12/31 00:18:22;;;;;;;1.02;0.30;;;;;;;12.95;79.19;100116.75;10335881;28;20093;-72
2021/12/31 00:23:26;;;;;;;0.95;0.50;;;;;;;13.14;78.13;100125.63;10335542;28;20042;-73
2021/12/31 00:28:27;;;;;;;1.05;0.45;;;;;;;12.99;79.03;100126.25;10335873;28;20480;-72
2021/12/31 00:33:29;;;;;;;0.50;0.30;;;;;;;13.09;78.62;100117.03;10317797;28;20061;-73
2021/12/31 00:38:31;;;;;;;0.50;0.28;;;;;;;13.01;79.30;100115.63;10335624;28;20097;-73
2021/12/31 00:43:32;;;;;;;0.40;0.40;;;;;;;13.00;79.44;100114.78;10333967;28;20114;-73
2021/12/31 00:48:34;;;;;;;0.38;0.38;;;;;;;13.06;78.83;100114.53;10334503;28;20042;-73
2021/12/31 00:53:35;;;;;;;0.93;0.30;;;;;;;12.99;79.58;100130.69;10333241;28;20050;-73
2021/12/31 00:58:37;;;;;;;0.40;0.30;;;;;;;12.93;79.36;100137.06;10333997;28;20484;-73
2021/12/31 01:03:39;;;;;;;0.45;0.40;;;;;;;12.96;78.84;100133.44;10334006;28;20058;-74
2021/12/31 01:08:41;;;;;;;2.25;0.50;;;;;;;12.81;79.70;100140.19;10333771;28;20046;-73
2021/12/31 01:13:59;;;;;;;0.57;0.30;;;;;;;12.95;79.21;100137.84;10332970;28;20077;-74
2021/12/31 01:24:06;;;;;;;0.63;0.40;;;;;;;13.04;78.79;100142.75;10316010;28;20050;-73
2021/12/31 01:29:08;;;;;;;0.70;0.30;;;;;;;12.99;78.93;100152.63;10333541;28;20046;-73
2021/12/31 01:34:09;;;;;;;0.80;0.30;;;;;;;13.02;79.09;100155.16;10315701;28;20055;-73
2021/12/31 01:39:11;;;;;;;0.73;0.30;;;;;;;13.02;78.86;100157.81;10333492;28;20039;-72
2021/12/31 01:44:12;;;;;;;1.55;0.40;;;;;;;12.98;79.51;100169.41;10333059;28;20047;-74
2021/12/31 01:49:20;;;;;;;0.68;0.38;;;;;;;13.09;78.70;100153.97;10315505;28;20046;-73
2021/12/31 01:54:22;;;;;;;0.40;0.30;;;;;;;13.16;78.32;100165.16;10331861;28;20054;-73
2021/12/31 01:59:24;;;;;;;0.82;0.30;;;;;;;12.96;79.66;100165.94;10315881;28;20038;-73
2021/12/31 02:04:29;;;;;;;0.57;0.20;;;;;;;12.93;79.69;100171.38;10333663;28;20089;-72
2021/12/31 02:09:35;;;;;;;1.00;0.30;;;;;;;13.01;79.14;100165.75;10333198;28;20054;-73
2021/12/31 02:14:37;;;;;;;0.30;0.20;;;;;;;13.20;78.08;100172.03;10333377;28;20046;-73
2021/12/31 02:19:39;;;;;;;0.38;0.20;;;;;;;13.16;78.40;100161.66;10331435;28;20047;-73
2021/12/31 02:24:42;;;;;;;0.52;0.20;;;;;;;13.09;78.59;100180.38;10316792;28;20054;-73
2021/12/31 02:29:43;;;;;;;0.50;0.30;;;;;;;13.03;79.39;100172.72;10338733;28;20046;-73
2021/12/31 02:34:46;;;;;;;0.80;0.20;;;;;;;13.11;78.97;100175.06;10339729;28;20161;-73
2021/12/31 02:39:48;;;;;;;0.40;0.40;;;;;;;13.23;78.64;100184.28;10339081;28;20092;-73
2021/12/31 02:44:51;;;;;;;0.50;0.30;;;;;;;13.27;78.36;100188.50;10322009;28;20050;-73
2021/12/31 02:49:53;;;;;;;0.35;0.28;;;;;;;13.24;78.29;100184.22;10339031;28;20408;-73
2021/12/31 02:54:59;;;;;;;0.20;0.20;;;;;;;13.25;78.14;100185.94;10339537;28;20058;-73
2021/12/31 03:00:01;;;;;;;0.22;0.20;;;;;;;13.25;78.05;100188.59;10339689;28;20050;-73
2021/12/31 03:05:03;;;;;;;0.85;0.20;;;;;;;13.22;78.37;100195.72;10321423;28;20086;-73
2021/12/31 03:10:06;;;;;;;0.57;0.30;;;;;;;13.11;78.96;100190.88;10338272;28;20046;-73
2021/12/31 03:15:09;;;;;;;0.55;0.40;;;;;;;13.13;78.82;100189.03;10338756;28;20058;-73
2021/12/31 03:20:25;;;;;;;0.63;0.38;;;;;;;13.11;78.87;100196.16;10338438;28;20100;-73
2021/12/31 03:25:26;;;;;;;0.25;0.25;;;;;;;13.13;79.15;100189.03;10338398;28;20092;-73
2021/12/31 03:30:28;;;;;;;0.22;0.22;;;;;;;13.02;79.05;100188.63;10337092;28;20043;-73
2021/12/31 03:35:30;;;;;;;0.20;0.20;;;;;;;13.10;79.14;100182.13;10320104;28;20057;-72
2021/12/31 03:40:32;;;;;;;0.35;0.20;;;;;;;13.07;79.12;100169.03;10447627;23;20106;-73
2021/12/31 03:45:35;;;;;;;1.38;0.40;;;;;;;13.04;79.28;100165.66;10504657;28;20044;-75
2021/12/31 03:50:37;;;;;;;1.30;0.30;;;;;;;12.95;79.59;100147.53;10489942;28;20040;-75
2021/12/31 03:55:38;;;;;;;0.40;0.20;;;;;;;13.06;78.88;100154.13;10505536;28;20047;-73
2021/12/31 04:00:40;;;;;;;0.20;0.20;;;;;;;12.92;79.21;100153.78;10504838;28;20066;-74
2021/12/31 04:05:42;;;;;;;0.63;0.50;;;;;;;12.88;79.45;100160.09;10488435;28;20040;-74
2021/12/31 04:10:44;;;;;;;0.55;0.35;;;;;;;12.73;79.60;100164.22;10508813;28;20048;-74
2021/12/31 04:15:45;;;;;;;0.63;0.20;;;;;;;12.68;80.12;100173.22;10479779;28;20052;-74
2021/12/31 04:20:49;;;;;;;0.50;0.35;;;;;;;12.65;80.11;100170.69;10486871;28;20041;-74
2021/12/31 04:25:50;;;;;;;0.85;0.38;;;;;;;12.69;79.87;100173.16;10505671;28;20044;-74
2021/12/31 04:30:52;;;;;;;0.73;0.30;;;;;;;12.67;79.88;100176.78;10489695;28;20056;-74
2021/12/31 04:35:54;;;;;;;1.00;0.30;;;;;;;12.74;79.42;100172.97;10487783;28;20037;-73
2021/12/31 04:40:55;;;;;;;0.35;0.30;;;;;;;12.57;80.09;100158.69;10487248;28;20040;-74
2021/12/31 04:45:57;;;;;;;0.35;0.20;;;;;;;12.54;80.42;100157.94;10505084;28;20072;-74
2021/12/31 04:50:59;;;;;;;0.30;0.30;;;;;;;12.57;80.31;100166.59;10485097;28;20518;-73
2021/12/31 04:56:02;;;;;;;1.35;0.40;;;;;;;12.55;80.54;100176.31;10506257;28;20059;-74
2021/12/31 05:01:04;;;;;;;0.30;0.28;;;;;;;12.74;79.66;100181.75;10502103;28;20432;-74
2021/12/31 05:06:06;;;;;;;0.40;0.40;;;;;;;12.80;79.37;100176.25;10486954;28;20094;-74
2021/12/31 05:11:08;;;;;;;1.58;0.30;;;;;;;12.77;79.81;100202.75;10503843;28;20494;-74
2021/12/31 05:16:10;;;;;;;0.82;0.40;;;;;;;12.75;79.81;100204.59;10487561;28;20098;-73
2021/12/31 05:21:12;;;;;;;0.35;0.30;;;;;;;12.91;79.03;100196.94;10503951;28;20521;-74
2021/12/31 05:26:13;;;;;;;1.10;0.40;;;;;;;12.92;78.89;100192.50;10502360;28;20052;-73
2021/12/31 05:31:15;;;;;;;1.10;0.40;;;;;;;12.85;79.06;100208.59;10484193;28;20048;-75
2021/12/31 05:36:17;;;;;;;1.42;0.30;;;;;;;12.81;79.53;100211.41;10504279;28;20036;-74
2021/12/31 05:41:19;;;;;;;0.40;0.32;;;;;;;12.72;79.84;100217.03;10501521;28;20043;-74
2021/12/31 05:46:20;;;;;;;0.43;0.28;;;;;;;12.92;78.81;100214.47;10501634;28;20059;-74
2021/12/31 05:51:26;;;;;;;0.40;0.40;;;;;;;12.86;78.90;100204.16;10501355;28;20398;-73
2021/12/31 05:56:27;;;;;;;0.73;0.30;;;;;;;12.87;78.83;100208.53;10501362;28;20044;-74
2021/12/31 06:01:29;;;;;;;0.55;0.30;;;;;;;12.85;79.07;100207.72;10489065;28;20044;-74
2021/12/31 06:06:31;;;;;;;0.50;0.30;;;;;;;12.63;81.16;100219.09;10508771;28;20413;-74
2021/12/31 06:11:33;;;;;;;0.30;0.30;;;;;;;12.72;81.23;100204.69;10509252;28;20067;-74
2021/12/31 06:16:38;;;;;;;0.70;0.30;;;;;;;12.59;81.59;100196.38;10511308;28;20052;-73
2021/12/31 06:21:42;;;;;;;0.20;0.20;;;;;;;12.70;80.02;100203.03;10513121;28;20043;-74
2021/12/31 06:26:43;;;;;;;0.52;0.20;;;;;;;12.87;78.48;100200.59;10510649;28;20486;-74
2021/12/31 06:31:45;;;;;;;1.05;0.40;;;;;;;12.88;77.58;100207.59;10512156;28;20045;-74
2021/12/31 06:36:47;;;;;;;0.30;0.30;;;;;;;12.82;77.51;100194.66;10510995;28;20460;-74
2021/12/31 06:41:49;;;;;;;1.35;0.20;;;;;;;12.84;77.45;100198.09;10494814;28;20068;-75
2021/12/31 06:46:50;;;;;;;0.30;0.30;;;;;;;12.97;76.24;100209.91;10492070;28;20048;-74
2021/12/31 06:51:52;;;;;;;1.05;0.20;;;;;;;12.94;76.25;100207.38;10510034;28;20056;-73
2021/12/31 06:56:54;;;;;;;0.65;0.20;;;;;;;12.93;75.75;100199.53;10508722;28;20101;-74
2021/12/31 07:01:57;;;;;;;2.63;0.52;;;;;;;12.94;75.61;100204.75;10492363;28;20105;-74
2021/12/31 07:06:59;;;;;;;1.05;0.50;;;;;;;12.85;76.01;100199.81;10490292;28;20505;-75
2021/12/31 07:12:04;;;;;;;0.60;0.40;;;;;;;12.96;75.25;100215.22;10490784;28;20410;-74
2021/12/31 07:17:05;;;;;;;0.38;0.30;;;;;;;12.99;74.43;100223.88;10490206;28;20049;-73
2021/12/31 07:22:07;;;;;;;0.75;0.40;;;;;;;13.00;74.42;100228.25;10509342;28;20040;-73
2021/12/31 07:27:09;;;;;;;0.60;0.32;;;;;;;13.14;73.31;100231.19;10493101;28;20048;-74
2021/12/31 07:32:10;;;;;;;0.70;0.40;;;;;;;13.12;73.76;100227.78;10490340;28;20063;-74
2021/12/31 07:37:12;;;;;;;0.73;0.43;;;;;;;13.12;73.13;100232.19;10507979;28;20086;-75
2021/12/31 07:42:14;;;;;;;1.02;0.38;;;;;;;13.12;72.82;100227.78;10491313;28;20048;-72
2021/12/31 07:47:15;;;;;;;1.75;0.40;;;;;;;13.07;73.10;100232.38;10511205;28;20102;-73
2021/12/31 07:52:17;;;;;;;0.95;0.50;;;;;;;13.20;72.07;100229.25;10509299;28;20131;-73
2021/12/31 07:57:19;;;;;;;0.60;0.30;;;;;;;13.35;71.48;100241.88;10507879;28;20055;-73
2021/12/31 08:02:20;;;;;;;0.93;0.40;;;;;;;13.24;71.89;100236.16;10508279;28;20056;-73
2021/12/31 08:07:22;;;;;;;0.52;0.40;;;;;;;13.38;71.34;100241.75;10510045;28;20048;-74
2021/12/31 08:12:25;;;;;;;0.63;0.43;;;;;;;13.38;71.31;100247.91;10491613;28;20117;-73
2021/12/31 08:17:27;;;;;;;0.38;0.38;;;;;;;13.28;72.05;100253.56;10506899;28;20072;-74
2021/12/31 08:22:28;;;;;;;1.48;0.30;;;;;;;13.37;71.41;100264.66;10506825;28;20046;-73
2021/12/31 08:27:30;;;;;;;0.43;0.40;;;;;;;13.45;71.06;100264.34;10506346;28;20044;-73
2021/12/31 08:32:32;;;;;;;0.57;0.40;;;;;;;13.43;71.42;100265.34;10491498;28;20055;-73
2021/12/31 08:37:35;;;;;;;0.32;0.28;;;;;;;13.36;71.80;100260.28;10487881;28;20459;-74
2021/12/31 08:42:39;;;;;;;1.15;0.45;;;;;;;13.33;72.23;100262.22;10488699;28;20039;-74
2021/12/31 08:47:40;;;;;;;0.93;0.70;;;;;;;13.29;72.65;100263.25;10505321;28;20045;-74
2021/12/31 08:52:42;;;;;;;1.33;0.52;;;;;;;13.24;72.64;100262.56;10518453;28;20051;-74
2021/12/31 08:57:44;;;;;;;0.47;0.47;;;;;;;13.27;72.36;100255.38;10523697;28;20460;-73
2021/12/31 09:02:46;;;;;;;0.68;0.60;;;;;;;13.47;70.88;100261.66;10507055;28;20063;-74
2021/12/31 09:07:50;;;;;;;0.85;0.57;;;;;;;13.43;71.17;100262.69;10507487;28;20061;-73
2021/12/31 09:12:54;;;;;;;0.85;0.60;;;;;;;13.43;70.68;100246.84;10531782;28;20072;-75
2021/12/31 09:17:56;;;;;;;0.95;0.73;;;;;;;13.60;69.55;100242.59;10549302;28;20417;-74
2021/12/31 09:23:02;;;;;;;1.05;0.52;;;;;;;13.53;70.02;100258.75;10531671;28;20413;-75
2021/12/31 09:28:04;;;;;;;1.97;0.50;;;;;;;13.48;69.93;100253.66;10528597;28;20101;-74
2021/12/31 09:33:05;;;;;;;0.90;0.50;;;;;;;13.50;69.57;100259.75;10548117;28;20052;-75
2021/12/31 09:38:09;;;;;;;1.08;0.57;;;;;;;13.71;69.02;100258.00;10545371;28;20107;-74
2021/12/31 09:43:13;;;;;;;0.70;0.50;;;;;;;13.62;69.09;100258.38;10563438;28;20044;-74
2021/12/31 09:48:18;;;;;;;2.28;0.98;;;;;;;13.68;68.76;100265.19;10561333;28;20059;-73
2021/12/31 09:53:21;;;;;;;1.83;0.63;;;;;;;13.65;69.31;100262.69;10560690;28;20063;-73
2021/12/31 09:58:26;;;;;;;1.35;0.70;;;;;;;13.73;68.21;100248.25;10548000;28;20452;-74
2021/12/31 10:03:33;;;;;;;0.90;0.65;;;;;;;13.80;68.18;100241.75;10529982;22;20090;-73
2021/12/31 10:08:57;;;;;;;0.93;0.60;;;;;;;13.98;66.95;100226.91;10510316;28;20535;-75
2021/12/31 10:14:01;;;;;;;1.23;0.63;;;;;;;14.02;67.00;100212.66;10509304;28;20043;-74
2021/12/31 10:19:13;;;;;;;1.23;0.60;;;;;;;13.83;67.12;100204.66;10510753;28;20058;-74
2021/12/31 10:24:37;;;;;;;1.33;0.65;;;;;;;13.74;67.64;100206.84;10509077;28;20036;-74
2021/12/31 10:30:03;;;;;;;1.90;0.50;;;;;;;13.82;67.30;100216.16;10510639;28;20048;-74
2021/12/31 10:35:20;;;;;;;0.82;0.50;;;;;;;13.97;66.55;100201.41;10511036;28;20048;-73
2021/12/31 10:40:40;;;;;;;0.57;0.50;;;;;;;14.17;65.31;100197.94;10510354;28;20097;-73
2021/12/31 10:46:08;;;;;;;1.77;1.10;;;;;;;14.12;65.66;100186.66;10491526;28;20136;-73
2021/12/31 10:51:12;;;;;;;3.33;0.63;;;;;;;14.17;64.66;100178.56;10486186;28;20090;-72
2021/12/31 10:56:14;;;;;;;1.02;0.60;;;;;;;14.42;63.66;100173.03;10503653;28;20049;-74
2021/12/31 11:01:16;;;;;;;1.00;0.60;;;;;;;14.51;62.92;100176.13;10485906;28;20048;-72
2021/12/31 11:06:20;;;;;;;0.98;0.35;;;;;;;14.55;62.92;100172.41;10503658;28;20102;-73
2021/12/31 11:11:24;;;;;;;1.27;0.52;;;;;;;14.58;63.26;100172.28;10484377;28;20119;-74
2021/12/31 11:16:26;;;;;;;3.10;1.48;;;;;;;15.18;60.68;100179.19;10502475;28;20101;-73
2021/12/31 11:21:28;;;;;;;1.50;0.40;;;;;;;16.65;56.02;100173.38;10503737;28;20044;-73
2021/12/31 11:26:29;;;;;;;1.00;0.50;;;;;;;17.23;53.82;100161.31;10502693;28;20129;-73
2021/12/31 11:31:41;;;;;;;0.77;0.50;;;;;;;17.10;53.27;100165.63;10502505;28;20383;-73
2021/12/31 11:36:53;;;;;;;1.10;0.50;;;;;;;17.02;53.22;100160.72;10502778;28;20052;-74
2021/12/31 11:41:58;;;;;;;0.68;0.30;;;;;;;17.08;53.55;100156.88;10502349;28;20098;-73
2021/12/31 11:47:13;;;;;;;0.70;0.50;;;;;;;17.67;53.00;100146.41;10502611;28;20102;-73
2021/12/31 11:52:23;;;;;;;0.88;0.50;;;;;;;17.63;51.99;100143.91;10501189;28;20040;-72
2021/12/31 11:57:29;;;;;;;1.13;0.43;;;;;;;16.95;53.92;100138.09;10500854;28;20072;-72
2021/12/31 12:02:33;;;;;;;0.63;0.47;;;;;;;16.76;53.50;100134.78;10502440;28;20041;-73
2021/12/31 12:07:38;;;;;;;0.57;0.40;;;;;;;16.57;54.39;100133.13;10500911;28;20041;-73
2021/12/31 12:12:48;;;;;;;0.50;0.38;;;;;;;16.28;54.77;100129.38;10500748;28;20501;-73
2021/12/31 12:17:50;;;;;;;1.30;0.70;;;;;;;16.39;54.91;100119.06;10501332;28;20094;-74
2021/12/31 12:22:54;;;;;;;2.47;0.88;;;;;;;16.26;55.43;100111.84;10500344;28;20059;-73
2021/12/31 12:28:07;;;;;;;1.08;0.57;;;;;;;16.09;56.03;100112.75;10500888;28;20060;-73
2021/12/31 12:38:19;;;;;;;0.65;0.50;;;;;;;15.56;57.52;100114.56;10481791;28;20049;-73
2021/12/31 12:43:30;;;;;;;0.57;0.40;;;;;;;15.38;58.27;100105.78;10499093;28;20063;-73
2021/12/31 12:48:43;;;;;;;1.20;0.57;;;;;;;15.21;59.10;100110.19;10498484;28;20104;-73
2021/12/31 12:53:48;;;;;;;1.10;0.43;;;;;;;15.21;58.80;100107.56;10498718;28;20559;-74
2021/12/31 12:58:52;;;;;;;1.45;0.50;;;;;;;15.07;58.68;100089.69;10499024;28;20040;-73
2021/12/31 13:03:55;;;;;;;1.02;0.50;;;;;;;14.98;59.30;100096.31;10498952;28;20095;-72
2021/12/31 13:09:13;;;;;;;0.70;0.38;;;;;;;14.83;59.79;100103.22;10496948;28;20045;-71
2021/12/31 13:14:20;;;;;;;0.98;0.50;;;;;;;14.84;59.37;100099.63;10498498;28;20052;-71
2021/12/31 13:19:36;;;;;;;2.13;0.63;;;;;;;14.69;60.12;100102.13;10499104;28;20052;-72
2021/12/31 13:24:39;;;;;;;0.85;0.50;;;;;;;14.75;59.92;100104.50;10498506;28;20111;-72
2021/12/31 13:29:43;;;;;;;0.80;0.65;;;;;;;14.56;60.58;100101.84;10477930;28;20090;-72
2021/12/31 13:34:50;;;;;;;1.13;0.77;;;;;;;14.57;60.29;100115.03;10515215;28;20126;-72
2021/12/31 13:40:20;;;;;;;1.42;0.57;;;;;;;14.50;60.53;100115.38;10506809;28;20041;-73
2021/12/31 13:45:23;;;;;;;0.60;0.55;;;;;;;14.33;60.51;100113.47;10497151;28;20048;-72
2021/12/31 13:50:31;;;;;;;0.82;0.60;;;;;;;14.22;60.88;100121.06;10500894;28;20051;-72
2021/12/31 13:55:32;;;;;;;1.10;0.50;;;;;;;14.16;61.37;100124.81;10497880;28;20101;-72
2021/12/31 14:00:36;;;;;;;1.00;0.57;;;;;;;14.17;61.45;100129.19;10499560;28;20390;-71
2021/12/31 14:05:59;;;;;;;1.50;1.10;;;;;;;14.01;62.17;100118.44;10497724;28;20059;-75
2021/12/31 14:11:01;;;;;;;1.95;1.20;;;;;;;13.91;62.98;100113.63;10498192;28;20033;-69
2021/12/31 14:16:03;;;;;;;2.15;0.60;;;;;;;13.66;63.56;100101.50;10497922;28;20044;-69
2021/12/31 14:21:05;;;;;;;2.90;0.70;;;;;;;13.75;63.63;100102.88;10499840;28;20132;-69
2021/12/31 14:26:06;;;;;;;1.08;0.65;;;;;;;13.69;63.81;100093.44;10505911;28;20049;-69
2021/12/31 14:31:08;;;;;;;1.10;0.80;;;;;;;13.62;64.27;100094.63;10487823;28;20095;-69
2021/12/31 14:36:10;;;;;;;1.17;0.60;;;;;;;13.66;64.35;100108.56;10506069;28;20052;-69
2021/12/31 14:41:24;;;;;;;2.78;0.55;;;;;;;13.58;65.09;100112.38;10505664;28;20048;-69
2021/12/31 14:46:27;;;;;;;0.98;0.50;;;;;;;13.38;66.18;100112.38;10506436;28;20041;-69
2021/12/31 14:51:29;;;;;;;0.70;0.70;;;;;;;13.31;66.55;100124.09;10504202;28;20147;-68
2021/12/31 14:56:31;;;;;;;2.15;0.80;;;;;;;13.06;67.72;100130.38;10502920;28;20052;-68
2021/12/31 15:01:34;;;;;;;2.03;1.42;;;;;;;13.30;67.23;100091.56;10504449;28;20048;-69
2021/12/31 15:06:37;;;;;;;1.65;0.82;;;;;;;13.24;67.45;100101.53;10486622;28;20056;-69
2021/12/31 15:11:38;;;;;;;2.10;1.50;;;;;;;13.21;67.89;100086.66;10503769;28;20041;-69
2021/12/31 15:16:41;;;;;;;1.88;1.20;;;;;;;13.14;68.21;100080.75;10503381;28;20048;-69
2021/12/31 15:21:43;;;;;;;1.60;1.33;;;;;;;13.00;68.69;100074.34;10503606;28;20102;-68
2021/12/31 15:26:45;;;;;;;2.28;0.88;;;;;;;13.17;67.76;100084.19;10502966;28;20109;-69
2021/12/31 15:31:46;;;;;;;1.75;0.85;;;;;;;13.08;68.25;100074.88;10500661;28;20041;-69
2021/12/31 15:36:48;;;;;;;1.73;1.00;;;;;;;13.20;67.84;100058.53;10501866;28;20048;-70
2021/12/31 15:41:50;;;;;;;3.75;2.08;;;;;;;13.10;68.40;100060.72;10501521;28;20040;-68
2021/12/31 15:46:52;;;;;;;1.42;1.20;;;;;;;13.16;68.07;100050.81;10500042;28;20082;-69
2021/12/31 15:51:54;;;;;;;2.00;1.15;;;;;;;13.19;67.75;100033.03;10500894;28;20123;-69
2021/12/31 15:56:55;;;;;;;1.92;1.20;;;;;;;13.18;67.79;100046.31;10500961;28;20060;-69
2021/12/31 16:01:57;;;;;;;1.98;1.50;;;;;;;13.19;67.42;100045.38;10500598;28;20047;-69
2021/12/31 16:06:59;;;;;;;2.90;1.50;;;;;;;13.12;67.91;100048.31;10500489;28;20040;-69
2021/12/31 16:12:00;;;;;;;3.28;2.80;;;;;;;13.11;68.13;100051.88;10500032;28;20182;-70
2021/12/31 16:17:03;;;;;;;1.38;1.23;;;;;;;13.16;67.96;100040.25;10499642;28;20090;-70
2021/12/31 16:22:07;;;;;;;1.15;1.02;;;;;;;13.17;67.86;100041.97;10499659;28;20045;-69
2021/12/31 16:27:10;;;;;;;2.25;1.90;;;;;;;13.17;67.74;100056.03;10500457;28;20049;-69
2021/12/31 16:32:12;;;;;;;1.73;1.55;;;;;;;13.16;67.66;100048.19;10499861;28;20079;-70
2021/12/31 16:37:13;;;;;;;5.10;1.75;;;;;;;13.07;68.17;100052.06;10498670;28;20098;-71
2021/12/31 16:42:16;;;;;;;1.30;1.20;;;;;;;13.17;67.46;100047.25;10498864;28;20098;-69
2021/12/31 16:47:18;;;;;;;4.40;1.55;;;;;;;13.08;67.84;100046.72;10498304;28;20490;-69
2021/12/31 16:52:19;;;;;;;2.30;1.90;;;;;;;13.20;67.08;100060.34;10480917;28;20047;-70
2021/12/31 16:57:21;;;;;;;2.05;1.42;;;;;;;13.21;66.93;100073.44;10498359;28;20444;-70
2021/12/31 17:02:22;;;;;;;1.60;1.40;;;;;;;13.05;67.93;100069.72;10497875;28;20055;-69
2021/12/31 17:07:24;;;;;;;2.35;1.75;;;;;;;13.03;67.86;100061.88;10497296;28;20083;-69
2021/12/31 17:12:26;;;;;;;1.40;1.15;;;;;;;13.05;68.12;100062.66;10498655;28;20040;-70
2021/12/31 17:17:27;;;;;;;2.85;1.85;;;;;;;12.91;68.88;100061.53;10480349;28;20383;-70
2021/12/31 17:22:33;;;;;;;3.20;2.10;;;;;;;13.05;68.16;100057.38;10497600;28;20044;-69
2021/12/31 17:27:35;;;;;;;1.50;1.40;;;;;;;12.92;68.91;100063.22;10497127;28;20045;-70
2021/12/31 17:32:37;;;;;;;2.42;1.80;;;;;;;12.85;69.42;100060.00;10496867;28;20037;-69
2021/12/31 17:37:39;;;;;;;1.80;1.50;;;;;;;12.91;69.18;100038.63;10496874;28;20044;-71
2021/12/31 17:42:41;;;;;;;2.13;1.50;;;;;;;12.86;69.39;100030.06;10479180;28;20044;-69
2021/12/31 17:47:43;;;;;;;1.70;1.20;;;;;;;13.14;67.87;100042.94;10464032;28;20102;-70
2021/12/31 17:52:44;;;;;;;5.95;1.30;;;;;;;13.13;68.00;100039.44;10479182;28;20041;-70
2021/12/31 17:57:48;;;;;;;2.50;1.35;;;;;;;13.00;69.08;100030.34;10501572;28;20049;-70
2021/12/31 18:02:50;;;;;;;1.92;1.20;;;;;;;13.03;69.00;100027.56;10505223;28;20037;-70
2021/12/31 18:07:52;;;;;;;1.67;1.20;;;;;;;12.92;70.22;100047.41;10506428;28;20136;-69
2021/12/31 18:12:53;;;;;;;3.08;2.75;;;;;;;12.97;70.29;100059.50;10506140;28;20109;-71
2021/12/31 18:17:55;;;;;;;1.88;1.75;;;;;;;12.95;70.28;100055.19;10487837;28;20067;-69
2021/12/31 18:22:59;;;;;;;2.63;2.20;;;;;;;12.80;72.46;100054.91;10487717;28;20052;-69
2021/12/31 18:28:00;;;;;;;3.03;1.33;;;;;;;12.70;73.27;100050.91;10486993;28;20048;-69
2021/12/31 18:33:02;;;;;;;2.28;1.60;;;;;;;12.57;74.48;100060.22;10505183;28;20084;-70
2021/12/31 18:38:03;;;;;;;2.30;2.10;;;;;;;12.66;74.74;100072.19;10505037;28;20048;-70
2021/12/31 18:43:05;;;;;;;3.15;2.85;;;;;;;12.53;75.02;100059.50;10504423;28;20041;-69
2021/12/31 18:48:07;;;;;;;7.85;4.50;;;;;;;12.47;75.54;100078.19;10504437;28;20551;-69
2021/12/31 18:53:09;;;;;;;2.92;2.67;;;;;;;12.31;75.86;100098.16;10485973;28;20447;-69
2021/12/31 18:58:11;;;;;;;1.70;1.58;;;;;;;12.51;75.20;100102.66;10504467;28;20044;-70
2021/12/31 19:03:12;;;;;;;1.80;1.52;;;;;;;12.59;74.73;100119.91;10487949;28;20048;-70
2021/12/31 19:08:14;;;;;;;2.97;2.42;;;;;;;12.54;74.42;100126.28;10503111;28;20501;-69
2021/12/31 19:13:15;;;;;;;3.05;2.28;;;;;;;12.98;71.54;100119.28;10503436;28;20048;-69
2021/12/31 19:18:18;;;;;;;2.60;1.25;;;;;;;12.93;71.95;100115.97;10503713;28;20068;-69
2021/12/31 19:23:19;;;;;;;1.60;1.30;;;;;;;12.83;72.35;100130.41;10503534;28;20102;-70
2021/12/31 19:28:21;;;;;;;1.48;1.27;;;;;;;12.85;72.33;100120.69;10503149;28;20130;-70
2021/12/31 19:33:23;;;;;;;2.42;1.50;;;;;;;12.94;71.53;100148.47;10502754;28;20519;-69
2021/12/31 19:38:25;;;;;;;5.47;3.20;;;;;;;12.83;72.62;100162.94;10485430;28;20390;-70
2021/12/31 19:43:27;;;;;;;2.85;2.20;;;;;;;12.83;72.63;100152.38;10502816;28;20036;-70
2021/12/31 19:48:28;;;;;;;1.80;1.38;;;;;;;12.87;72.57;100176.88;10501783;28;20400;-70
2021/12/31 19:53:30;;;;;;;2.28;1.40;;;;;;;12.85;72.76;100171.66;10502062;28;20114;-69
2021/12/31 19:58:31;;;;;;;1.75;1.10;;;;;;;13.04;71.00;100198.19;10483556;28;20101;-70
2021/12/31 20:03:33;;;;;;;1.98;1.52;;;;;;;13.10;70.84;100200.59;10502510;28;20070;-71
2021/12/31 20:08:35;;;;;;;3.10;1.90;;;;;;;13.03;71.53;100190.31;10501859;28;20494;-71
2021/12/31 20:13:39;;;;;;;4.35;1.27;;;;;;;12.91;71.60;100181.09;10502620;28;20037;-70
2021/12/31 20:18:41;;;;;;;2.65;1.55;;;;;;;12.86;72.18;100193.63;10500367;28;20063;-70
2021/12/31 20:23:42;;;;;;;4.00;2.53;;;;;;;12.92;72.10;100192.50;10500619;28;20044;-70
2021/12/31 20:28:44;;;;;;;4.20;3.80;;;;;;;12.97;71.62;100190.56;10484020;28;20571;-70
2021/12/31 20:33:47;;;;;;;1.50;1.25;;;;;;;12.87;71.92;100200.59;10483542;28;20044;-70
2021/12/31 20:38:49;;;;;;;4.80;4.05;;;;;;;12.96;71.44;100209.94;10483406;28;20048;-71
2021/12/31 20:43:51;;;;;;;1.67;1.33;;;;;;;13.07;70.94;100211.25;10500322;28;20048;-70
2021/12/31 20:48:53;;;;;;;2.90;2.55;;;;;;;12.93;71.25;100216.22;10500592;28;20056;-70
2021/12/31 20:53:57;;;;;;;1.58;1.38;;;;;;;12.83;72.12;100225.38;10500938;28;20051;-70
2021/12/31 20:58:59;;;;;;;2.00;1.83;;;;;;;12.82;72.42;100239.50;10502369;28;20040;-73
2021/12/31 21:04:01;;;;;;;3.53;2.92;;;;;;;12.75;72.92;100238.00;10501972;28;20075;-73
2021/12/31 21:09:04;;;;;;;2.20;1.50;;;;;;;12.68;73.17;100263.75;10503307;28;20044;-73
2021/12/31 21:14:06;;;;;;;3.30;2.42;;;;;;;12.82;72.23;100276.44;10503038;28;20094;-73
2021/12/31 21:19:07;;;;;;;1.70;1.50;;;;;;;12.87;72.37;100275.34;10504199;28;20052;-73
2021/12/31 21:24:11;;;;;;;3.35;1.80;;;;;;;12.82;72.69;100271.16;10503310;28;20041;-73
2021/12/31 21:29:13;;;;;;;2.50;1.92;;;;;;;12.77;72.93;100291.56;10502104;28;20072;-73
2021/12/31 21:34:14;;;;;;;2.60;2.40;;;;;;;12.64;73.96;100301.69;10508266;28;20045;-72
2021/12/31 21:39:16;;;;;;;3.30;2.47;;;;;;;12.71;73.53;100297.09;10517404;28;20098;-73
2021/12/31 21:44:18;;;;;;;2.97;2.75;;;;;;;12.75;73.46;100301.31;10517283;28;20074;-73
2021/12/31 21:49:19;;;;;;;3.65;3.30;;;;;;;12.67;74.10;100316.56;10500624;28;20196;-73
2021/12/31 21:54:21;;;;;;;3.83;3.00;;;;;;;12.68;74.35;100305.09;10503605;28;20112;-73
2021/12/31 21:59:23;;;;;;;2.58;1.60;;;;;;;12.64;74.59;100304.34;10534580;28;20044;-73
2021/12/31 22:04:25;;;;;;;2.92;1.92;;;;;;;12.58;74.93;100315.97;10544286;22;20114;-77
2021/12/31 22:09:27;;;;;;;2.20;1.58;;;;;;;12.66;74.97;100309.53;10501884;28;20071;-77
2021/12/31 22:14:29;;;;;;;3.50;1.80;;;;;;;12.53;75.62;100315.28;10502767;28;20126;-76
2021/12/31 22:19:31;;;;;;;2.45;1.90;;;;;;;12.50;75.85;100327.72;10483631;28;20078;-77
2021/12/31 22:24:32;;;;;;;3.47;2.38;;;;;;;12.54;75.85;100321.41;10487285;28;20448;-76
2021/12/31 22:29:34;;;;;;;2.95;1.90;;;;;;;12.65;75.40;100321.88;10487455;28;20040;-77
2021/12/31 22:34:36;;;;;;;2.08;1.88;;;;;;;12.46;76.42;100337.50;10509576;28;20041;-77
2021/12/31 22:39:37;;;;;;;2.60;1.80;;;;;;;12.58;75.76;100344.13;10506465;28;20041;-77
2021/12/31 22:44:39;;;;;;;2.55;1.80;;;;;;;12.55;76.18;100349.50;10512324;28;20106;-77
2021/12/31 22:49:41;;;;;;;2.20;2.00;;;;;;;12.45;77.14;100343.69;10518572;28;20044;-79
2021/12/31 22:54:42;;;;;;;2.70;1.98;;;;;;;12.44;77.01;100341.97;10522606;28;20448;-77
2021/12/31 22:59:46;;;;;;;11.10;10.05;;;;;;;12.38;77.12;100357.97;10516853;28;20041;-77
2021/12/31 23:04:47;;;;;;;4.38;3.45;;;;;;;12.53;76.01;100359.25;10508678;28;20048;-77
2021/12/31 23:09:49;;;;;;;7.70;7.07;;;;;;;12.40;76.77;100356.16;10492919;28;20053;-78
2021/12/31 23:14:51;;;;;;;34.83;30.80;;;;;;;12.54;76.07;100369.75;10509386;28;20041;-77
2021/12/31 23:19:52;;;;;;;12.90;11.70;;;;;;;12.45;76.58;100370.06;10506259;28;20498;-76
2021/12/31 23:24:54;;;;;;;24.75;22.42;;;;;;;12.50;76.29;100385.72;10472862;28;20083;-77